Time;durP1;ratioP1;P1;durP2;ratioP2;P2;SDS_P1;SDS_P2;PMS_P1;PMS_P2;Temp;Humidity;BMP_temperature;BMP_pressure;BME280_temperature;BME280_humidity;BME280_pressure;Samples;Min_cycle;Max_cycle;Signal;HPM_P1;HPM_P2
2021/03/29 00:02:24;;;;;;;10.85;2.25;;;7.20;78.50;;;;;;4873984;29;20062;-84
2021/03/29 00:04:52;;;;;;;5.65;2.13;;;7.10;78.90;;;;;;4879048;29;20083;-83
2021/03/29 00:07:22;;;;;;;7.55;1.98;;;7.10;78.70;;;;;;4890349;29;20049;-83
2021/03/29 00:09:52;;;;;;;7.47;1.48;;;7.00;79.00;;;;;;4890974;29;20320;-84
2021/03/29 00:12:23;;;;;;;4.75;1.42;;;7.00;79.00;;;;;;4862472;29;20045;-83
2021/03/29 00:14:51;;;;;;;;;;;6.90;78.90;;;;;;4895106;29;20125;-83
2021/03/29 00:17:22;;;;;;;5.18;1.33;;;6.80;79.00;;;;;;4878649;29;19927;-82
2021/03/29 00:19:51;;;;;;;3.20;1.02;;;6.80;79.30;;;;;;4892255;29;20411;-82
2021/03/29 00:22:20;;;;;;;2.85;1.05;;;6.70;79.70;;;;;;4877194;29;20057;-81
2021/03/29 00:24:49;;;;;;;5.82;1.17;;;6.70;79.70;;;;;;4891968;29;20422;-83
2021/03/29 00:27:17;;;;;;;2.53;0.75;;;6.70;79.70;;;;;;4875103;29;20056;-82
2021/03/29 00:29:45;;;;;;;5.88;0.93;;;6.60;79.80;;;;;;4882103;29;20041;-81
2021/03/29 00:32:14;;;;;;;4.50;1.02;;;6.60;79.70;;;;;;4879345;29;20064;-82
2021/03/29 00:34:43;;;;;;;1.45;0.50;;;6.50;80.00;;;;;;4850807;29;20053;-82
2021/03/29 00:37:11;;;;;;;3.45;0.98;;;6.40;80.20;;;;;;4897979;29;20072;-82
2021/03/29 00:39:41;;;;;;;5.50;1.40;;;6.40;80.40;;;;;;4888593;29;20090;-82
2021/03/29 00:42:10;;;;;;;3.13;1.05;;;6.40;80.40;;;;;;4879839;29;20049;-84
2021/03/29 00:44:38;;;;;;;4.30;1.15;;;6.30;80.50;;;;;;4898049;29;20466;-82
2021/03/29 00:47:06;;;;;;;2.17;0.90;;;6.20;80.70;;;;;;4881759;29;20124;-82
2021/03/29 00:49:36;;;;;;;4.53;0.70;;;6.20;80.70;;;;;;4882750;29;20064;-83
2021/03/29 00:52:09;;;;;;;1.98;0.65;;;6.20;80.80;;;;;;4884104;29;20077;-83
2021/03/29 00:54:39;;;;;;;2.28;1.17;;;6.20;80.90;;;;;;4867187;29;20052;-83
2021/03/29 00:57:12;;;;;;;3.38;1.00;;;6.10;81.30;;;;;;4885752;29;20053;-82
2021/03/29 00:59:42;;;;;;;1.42;0.70;;;6.00;81.40;;;;;;4896856;29;20063;-82
2021/03/29 01:02:10;;;;;;;1.60;0.95;;;6.00;81.50;;;;;;4894491;29;20060;-81
2021/03/29 01:04:40;;;;;;;3.25;0.52;;;5.90;81.60;;;;;;4886468;29;20084;-82
2021/03/29 01:07:12;;;;;;;1.23;1.00;;;5.90;81.60;;;;;;4885910;29;20049;-83
2021/03/29 01:09:41;;;;;;;6.75;1.10;;;5.90;81.30;;;;;;4886149;29;20079;-82
2021/03/29 01:12:10;;;;;;;4.03;0.95;;;5.90;81.20;;;;;;4881961;29;20044;-82
2021/03/29 01:14:41;;;;;;;2.65;0.50;;;5.90;81.40;;;;;;4899616;29;20065;-83
2021/03/29 01:17:13;;;;;;;5.18;1.02;;;5.90;81.60;;;;;;4883839;29;20047;-84
2021/03/29 01:20:09;;;;;;;1.95;1.23;;;5.80;81.60;;;;;;4881505;29;20336;-85
2021/03/29 01:22:42;;;;;;;6.82;0.90;;;5.80;81.40;;;;;;4872486;29;20535;-83
2021/03/29 01:25:17;;;;;;;2.72;0.45;;;5.90;80.90;;;;;;4871642;29;20075;-82
2021/03/29 01:27:50;;;;;;;2.92;0.85;;;5.90;80.70;;;;;;4897777;29;20045;-83
2021/03/29 01:30:20;;;;;;;0.95;0.52;;;5.90;80.20;;;;;;4882226;29;20056;-82
2021/03/29 01:32:48;;;;;;;1.95;0.82;;;5.90;80.30;;;;;;4897892;29;20096;-81
2021/03/29 01:35:22;;;;;;;2.92;0.88;;;6.00;80.30;;;;;;4881813;29;20056;-84
2021/03/29 01:37:50;;;;;;;1.45;0.60;;;5.90;80.50;;;;;;4883085;29;20056;-83
2021/03/29 01:40:20;;;;;;;2.63;0.68;;;5.80;80.60;;;;;;4883223;29;20096;-82
2021/03/29 01:42:49;;;;;;;4.53;0.82;;;5.80;80.70;;;;;;4897581;29;20084;-85
2021/03/29 01:45:21;;;;;;;1.02;0.70;;;5.70;81.10;;;;;;4898121;29;20112;-84
2021/03/29 01:47:51;;;;;;;4.45;0.77;;;5.70;81.40;;;;;;4880337;29;20055;-83
2021/03/29 01:50:24;;;;;;;2.33;0.88;;;5.70;81.60;;;;;;4885656;29;20065;-82
2021/03/29 01:52:53;;;;;;;1.42;0.57;;;5.70;81.60;;;;;;4883945;29;20217;-81
2021/03/29 01:55:24;;;;;;;1.42;0.70;;;5.60;81.80;;;;;;4881037;29;20441;-81
2021/03/29 01:57:54;;;;;;;1.60;0.45;;;5.50;82.10;;;;;;4881852;29;20101;-81
2021/03/29 02:00:27;;;;;;;1.80;0.53;;;5.50;82.10;;;;;;4868138;29;20069;-81
2021/03/29 02:02:57;;;;;;;2.22;0.80;;;5.50;82.00;;;;;;4883547;29;20049;-82
2021/03/29 02:05:27;;;;;;;3.30;0.73;;;5.50;82.30;;;;;;4896877;29;20069;-84
2021/03/29 02:07:55;;;;;;;5.05;0.80;;;5.40;82.50;;;;;;4882233;29;20071;-83
2021/03/29 02:10:25;;;;;;;3.83;0.63;;;5.40;82.60;;;;;;4895494;29;20331;-82
2021/03/29 02:12:55;;;;;;;3.85;0.80;;;5.30;82.70;;;;;;4898687;29;20479;-82
2021/03/29 02:15:29;;;;;;;3.50;1.10;;;5.20;83.00;;;;;;4897017;29;20635;-82
2021/03/29 02:17:59;;;;;;;2.67;0.68;;;5.20;83.20;;;;;;4884504;29;20064;-83
2021/03/29 02:20:33;;;;;;;3.33;0.60;;;5.20;83.40;;;;;;4873915;29;20068;-85
2021/03/29 02:23:01;;;;;;;3.10;1.00;;;5.10;83.50;;;;;;4895347;29;20057;-85
2021/03/29 02:25:35;;;;;;;6.88;0.52;;;5.00;83.50;;;;;;4879138;29;20065;-82
2021/03/29 02:28:10;;;;;;;2.42;0.60;;;5.00;83.70;;;;;;4880790;29;20057;-83
2021/03/29 02:30:41;;;;;;;2.25;0.70;;;5.00;83.70;;;;;;4879016;29;20057;-83
2021/03/29 02:33:13;;;;;;;2.45;0.73;;;4.90;83.80;;;;;;4895898;29;20089;-83
2021/03/29 02:35:42;;;;;;;0.70;0.30;;;4.90;83.80;;;;;;4885027;29;20056;-82
2021/03/29 02:38:13;;;;;;;2.90;0.98;;;4.90;84.10;;;;;;4896213;29;20044;-83
2021/03/29 02:40:43;;;;;;;5.95;0.73;;;4.90;84.10;;;;;;4894951;29;20208;-84
2021/03/29 02:43:16;;;;;;;2.83;0.73;;;4.80;84.10;;;;;;4896290;29;20120;-85
2021/03/29 02:45:49;;;;;;;2.15;0.65;;;4.80;84.30;;;;;;4895108;29;20060;-84
2021/03/29 02:48:19;;;;;;;4.55;0.68;;;4.70;84.60;;;;;;4892236;29;20478;-84
2021/03/29 02:50:53;;;;;;;1.88;0.70;;;4.70;84.60;;;;;;4883012;29;20088;-83
2021/03/29 02:53:24;;;;;;;1.50;0.47;;;4.70;84.60;;;;;;4883480;29;20054;-83
2021/03/29 02:55:53;;;;;;;6.32;0.85;;;4.60;84.20;;;;;;4882847;29;20068;-84
2021/03/29 02:58:28;;;;;;;1.92;0.50;;;4.60;84.30;;;;;;4880815;29;20048;-84
2021/03/29 03:00:58;;;;;;;0.60;0.38;;;4.60;84.90;;;;;;4879352;29;20076;-84
2021/03/29 03:03:28;;;;;;;2.90;0.90;;;4.60;84.60;;;;;;4881175;29;20045;-84
2021/03/29 03:05:57;;;;;;;1.65;0.57;;;4.60;84.60;;;;;;4883660;29;20396;-83
2021/03/29 03:08:25;;;;;;;2.65;0.63;;;4.70;84.20;;;;;;4895222;29;20068;-85
2021/03/29 03:10:54;;;;;;;1.27;0.80;;;4.70;84.60;;;;;;4896611;29;20339;-84
2021/03/29 03:13:29;;;;;;;6.10;0.82;;;4.70;84.40;;;;;;4895225;29;20279;-85
2021/03/29 03:15:57;;;;;;;2.05;0.63;;;4.70;84.30;;;;;;4894921;29;20097;-84
2021/03/29 03:18:25;;;;;;;7.30;0.98;;;4.80;84.20;;;;;;4881633;29;20068;-84
2021/03/29 03:20:53;;;;;;;3.95;0.90;;;4.90;84.10;;;;;;4881008;29;20351;-81
2021/03/29 03:23:22;;;;;;;7.65;0.88;;;4.90;83.80;;;;;;4881012;29;20047;-83
2021/03/29 03:25:52;;;;;;;3.03;0.90;;;4.90;83.90;;;;;;4879629;29;20277;-81
2021/03/29 03:28:23;;;;;;;2.38;0.65;;;5.10;83.80;;;;;;4872513;29;20049;-84
2021/03/29 03:30:55;;;;;;;1.55;0.52;;;5.10;83.40;;;;;;4882892;29;20051;-83
2021/03/29 03:33:26;;;;;;;1.75;0.60;;;5.30;83.10;;;;;;4880952;29;20738;-81
2021/03/29 03:35:55;;;;;;;2.95;0.70;;;5.30;83.10;;;;;;4882873;29;20053;-82
2021/03/29 03:38:26;;;;;;;5.05;0.57;;;5.30;83.10;;;;;;4881327;29;20652;-85
2021/03/29 03:40:55;;;;;;;;;;;5.30;83.10;;;;;;4897776;29;20080;-82
2021/03/29 03:43:26;;;;;;;1.70;0.65;;;5.30;83.00;;;;;;4894326;29;19920;-81
2021/03/29 03:46:00;;;;;;;5.18;2.00;;;5.30;83.10;;;;;;4883736;29;20049;-82
2021/03/29 03:48:35;;;;;;;1.70;0.70;;;5.40;83.00;;;;;;4888957;29;20617;-84
2021/03/29 03:51:11;;;;;;;2.65;0.90;;;5.50;82.60;;;;;;4875659;29;20392;-83
2021/03/29 03:53:43;;;;;;;1.85;0.80;;;5.60;82.50;;;;;;4891738;29;20078;-82
2021/03/29 03:56:12;;;;;;;6.38;2.17;;;5.70;81.90;;;;;;4883020;29;20049;-82
2021/03/29 03:58:40;;;;;;;2.60;1.00;;;5.70;81.70;;;;;;4865350;29;20077;-83
2021/03/29 04:01:09;;;;;;;2.50;0.80;;;5.80;81.30;;;;;;4875902;29;20048;-85
2021/03/29 04:03:37;;;;;;;2.50;1.00;;;5.90;81.20;;;;;;4881118;29;20348;-82
2021/03/29 04:06:06;;;;;;;3.13;1.50;;;5.80;81.80;;;;;;4879555;29;20057;-83
2021/03/29 04:08:34;;;;;;;3.90;1.60;;;5.80;81.90;;;;;;4879575;29;20049;-83
2021/03/29 04:11:04;;;;;;;6.10;2.45;;;5.80;81.70;;;;;;4895175;29;20391;-83
2021/03/29 04:13:34;;;;;;;8.10;1.90;;;5.80;81.80;;;;;;4881614;29;20056;-83
2021/03/29 04:16:03;;;;;;;4.35;1.50;;;5.70;82.10;;;;;;4879950;29;20061;-84
2021/03/29 04:18:36;;;;;;;7.00;1.88;;;5.80;82.00;;;;;;4891749;29;20049;-83
2021/03/29 04:21:06;;;;;;;4.22;1.08;;;5.70;81.90;;;;;;4879343;29;20057;-82
2021/03/29 04:23:46;;;;;;;2.83;1.40;;;5.70;82.00;;;;;;4879901;29;20057;-83
2021/03/29 04:26:16;;;;;;;3.33;1.63;;;5.70;82.00;;;;;;4865365;29;20389;-82
2021/03/29 04:28:44;;;;;;;3.70;1.48;;;5.70;82.20;;;;;;4877368;29;20329;-83
2021/03/29 04:31:13;;;;;;;2.90;1.08;;;5.70;82.30;;;;;;4876589;29;20277;-83
2021/03/29 04:33:42;;;;;;;4.55;1.48;;;5.70;82.30;;;;;;4876066;29;20108;-82
2021/03/29 04:36:10;;;;;;;5.63;2.03;;;5.70;82.70;;;;;;4890113;29;20051;-82
2021/03/29 04:38:38;;;;;;;9.68;1.70;;;5.70;82.60;;;;;;4883473;29;20057;-83
2021/03/29 04:41:07;;;;;;;7.07;1.88;;;5.70;82.70;;;;;;4881610;29;20048;-82
2021/03/29 04:43:35;;;;;;;4.72;1.30;;;5.70;82.50;;;;;;4891092;29;20061;-82
2021/03/29 04:46:05;;;;;;;5.68;1.65;;;5.70;82.60;;;;;;4879242;29;20057;-83
2021/03/29 04:48:32;;;;;;;2.95;1.50;;;5.70;82.60;;;;;;4878851;29;20045;-84
2021/03/29 04:51:06;;;;;;;2.20;1.20;;;5.70;82.60;;;;;;4865908;29;20049;-85
2021/03/29 04:53:35;;;;;;;4.47;1.38;;;5.70;82.70;;;;;;4881313;29;20065;-82
2021/03/29 04:56:03;;;;;;;4.25;2.13;;;5.70;82.80;;;;;;4890029;29;20121;-84
2021/03/29 04:58:38;;;;;;;9.02;2.80;;;5.70;82.80;;;;;;4867975;29;20045;-83
2021/03/29 05:01:08;;;;;;;8.38;3.13;;;5.70;82.80;;;;;;4890042;29;20053;-83
2021/03/29 05:03:35;;;;;;;5.25;2.05;;;5.80;82.70;;;;;;4869988;29;20060;-82
2021/03/29 05:06:05;;;;;;;5.40;1.90;;;5.90;82.10;;;;;;4882915;29;20375;-82
2021/03/29 05:08:35;;;;;;;4.40;1.40;;;6.00;81.80;;;;;;4886142;29;20236;-86
2021/03/29 05:11:07;;;;;;;4.88;2.20;;;6.00;81.70;;;;;;4863282;29;20522;-85
2021/03/29 05:13:35;;;;;;;3.58;1.75;;;6.00;81.60;;;;;;4864185;29;20282;-82
2021/03/29 05:16:06;;;;;;;3.50;1.20;;;6.00;81.40;;;;;;4883779;29;20110;-82
2021/03/29 05:18:33;;;;;;;4.63;2.05;;;6.00;81.50;;;;;;4885790;29;20330;-83
2021/03/29 05:21:01;;;;;;;2.80;1.02;;;5.90;81.70;;;;;;4881658;29;20045;-82
2021/03/29 05:23:31;;;;;;;4.22;1.40;;;5.80;81.80;;;;;;4888776;29;20061;-82
2021/03/29 05:25:59;;;;;;;5.95;1.70;;;5.70;82.20;;;;;;4906727;29;20276;-82
2021/03/29 05:28:28;;;;;;;5.07;1.30;;;5.50;82.70;;;;;;4907168;29;20243;-82
2021/03/29 05:30:56;;;;;;;5.22;0.85;;;5.40;83.40;;;;;;4893105;29;20056;-84
2021/03/29 05:33:24;;;;;;;3.13;1.58;;;5.30;83.70;;;;;;4902755;29;20785;-85
2021/03/29 05:35:52;;;;;;;5.50;1.48;;;5.20;83.90;;;;;;4903736;29;20063;-83
2021/03/29 05:38:20;;;;;;;2.10;1.08;;;5.20;84.20;;;;;;4888135;29;20091;-83
2021/03/29 05:40:53;;;;;;;4.57;1.52;;;5.20;84.30;;;;;;4888856;29;20073;-83
2021/03/29 05:43:22;;;;;;;5.85;2.00;;;5.20;84.10;;;;;;4887682;29;20463;-83
2021/03/29 05:45:51;;;;;;;2.55;1.00;;;5.20;84.40;;;;;;4899908;29;20045;-83
2021/03/29 05:48:19;;;;;;;2.97;1.17;;;5.20;84.30;;;;;;4891744;29;20052;-83
2021/03/29 05:50:47;;;;;;;5.68;1.35;;;5.30;83.70;;;;;;4886321;29;20064;-83
2021/03/29 05:53:19;;;;;;;3.38;1.20;;;5.40;83.10;;;;;;4888043;29;20049;-83
2021/03/29 05:55:49;;;;;;;2.53;1.33;;;5.40;83.20;;;;;;4892496;29;20052;-83
2021/03/29 06:01:14;;;;;;;2.40;1.08;;;5.60;82.70;;;;;;4887854;29;20045;-85
2021/03/29 06:03:42;;;;;;;5.53;1.27;;;5.70;82.30;;;;;;4900360;29;20370;-82
2021/03/29 06:06:21;;;;;;;3.90;1.73;;;5.70;82.10;;;;;;4890463;29;20530;-83
2021/03/29 06:08:52;;;;;;;4.43;1.65;;;5.80;81.60;;;;;;4874490;29;20056;-83
2021/03/29 06:11:24;;;;;;;;;;;5.90;81.40;;;;;;4889042;29;20052;-82
2021/03/29 06:14:11;;;;;;;4.10;1.10;;;6.00;81.00;;;;;;4885828;29;19927;-84
2021/03/29 06:16:59;;;;;;;6.40;1.63;;;6.10;80.40;;;;;;4870760;29;20057;-83
2021/03/29 06:19:44;;;;;;;4.75;1.42;;;6.20;80.20;;;;;;4887653;29;20556;-83
2021/03/29 06:22:20;;;;;;;7.35;1.70;;;6.30;79.80;;;;;;4888355;29;20049;-82
2021/03/29 06:24:53;;;;;;;6.57;2.15;;;6.40;80.00;;;;;;4889800;29;20057;-82
2021/03/29 06:27:22;;;;;;;3.53;1.33;;;6.60;79.10;;;;;;4881605;29;20386;-85
2021/03/29 06:29:52;;;;;;;5.18;1.98;;;6.60;78.50;;;;;;4872155;29;20119;-83
2021/03/29 06:32:20;;;;;;;3.78;1.92;;;6.60;78.60;;;;;;4896259;29;20053;-84
2021/03/29 06:34:49;;;;;;;4.22;1.80;;;6.60;78.70;;;;;;4900069;29;20060;-83
2021/03/29 06:37:20;;;;;;;5.90;1.90;;;6.60;78.60;;;;;;4890419;29;20124;-83
2021/03/29 06:39:48;;;;;;;4.55;1.65;;;6.60;78.50;;;;;;4873021;29;20053;-83
2021/03/29 06:42:20;;;;;;;3.13;1.33;;;6.50;78.70;;;;;;4903585;29;20112;-82
2021/03/29 06:44:49;;;;;;;6.60;1.58;;;6.40;78.70;;;;;;4904723;29;20379;-82
2021/03/29 06:47:19;;;;;;;4.32;1.17;;;6.50;78.90;;;;;;4885997;29;20059;-83
2021/03/29 06:49:50;;;;;;;3.97;1.20;;;6.40;79.20;;;;;;4900429;29;20056;-83
2021/03/29 06:52:26;;;;;;;6.55;2.13;;;6.60;78.90;;;;;;4891879;29;20089;-83
2021/03/29 06:54:55;;;;;;;3.47;1.48;;;6.70;78.20;;;;;;4901805;29;20053;-82
2021/03/29 06:57:31;;;;;;;3.28;1.33;;;6.90;77.70;;;;;;4880939;29;20042;-83
2021/03/29 07:00:00;;;;;;;8.18;2.13;;;7.10;77.30;;;;;;4876589;29;20080;-81
2021/03/29 07:02:42;;;;;;;7.13;2.00;;;7.20;76.50;;;;;;4888943;29;20049;-82
2021/03/29 07:05:12;;;;;;;3.70;1.58;;;7.40;75.80;;;;;;4884819;29;20049;-81
2021/03/29 07:07:48;;;;;;;2.95;1.27;;;7.60;75.50;;;;;;4885828;29;20049;-82
2021/03/29 07:10:17;;;;;;;7.88;1.33;;;7.70;74.90;;;;;;4885001;29;20064;-83
2021/03/29 07:12:48;;;;;;;8.68;1.55;;;7.90;74.20;;;;;;4870340;29;20048;-82
2021/03/29 07:15:20;;;;;;;8.57;1.50;;;8.00;73.70;;;;;;4874528;29;20044;-82
2021/03/29 07:17:51;;;;;;;4.75;1.90;;;8.20;73.00;;;;;;4899605;29;20352;-82
2021/03/29 07:20:24;;;;;;;3.75;2.08;;;8.30;72.60;;;;;;4868408;29;20054;-81
2021/03/29 07:22:55;;;;;;;13.73;2.05;;;8.30;72.10;;;;;;4883493;29;20286;-82
2021/03/29 07:25:35;;;;;;;5.18;1.67;;;8.30;71.80;;;;;;4886855;29;20056;-82
2021/03/29 07:28:10;;;;;;;5.47;1.63;;;8.40;71.90;;;;;;4882210;29;20060;-82
2021/03/29 07:30:48;;;;;;;9.23;2.15;;;8.50;71.60;;;;;;4885485;29;20287;-82
2021/03/29 07:33:19;;;;;;;4.13;1.40;;;8.50;71.50;;;;;;4895295;29;20044;-82
2021/03/29 07:35:50;;;;;;;4.30;1.95;;;8.60;70.80;;;;;;4885934;29;20360;-83
2021/03/29 07:38:20;;;;;;;7.68;1.58;;;8.70;71.20;;;;;;4896458;29;20057;-85
2021/03/29 07:40:50;;;;;;;4.03;1.33;;;8.70;71.00;;;;;;4896026;29;20277;-83
2021/03/29 07:43:19;;;;;;;4.55;2.08;;;8.90;70.70;;;;;;4898176;29;20049;-83
2021/03/29 07:45:55;;;;;;;6.35;1.73;;;9.00;70.50;;;;;;4883447;29;20051;-81
2021/03/29 07:48:38;;;;;;;9.23;2.03;;;9.20;69.80;;;;;;4885789;29;20045;-81
2021/03/29 07:51:11;;;;;;;7.43;2.33;;;9.30;69.60;;;;;;4881605;29;20109;-83
2021/03/29 07:53:45;;;;;;;3.90;1.52;;;9.40;69.20;;;;;;4882417;29;20060;-82
2021/03/29 07:56:33;;;;;;;8.40;2.47;;;9.70;68.70;;;;;;4880573;29;20057;-82
2021/03/29 07:59:06;;;;;;;6.20;1.95;;;9.90;68.30;;;;;;4879856;29;20073;-82
2021/03/29 08:01:58;;;;;;;8.60;2.80;;;10.20;67.40;;;;;;4865993;29;20059;-82
2021/03/29 08:05:03;;;;;;;4.55;1.90;;;10.30;65.60;;;;;;4881198;29;20047;-82
2021/03/29 08:07:39;;;;;;;4.65;1.63;;;10.50;64.00;;;;;;4880047;29;20551;-84
2021/03/29 08:10:09;;;;;;;10.88;2.30;;;10.60;63.10;;;;;;4894371;29;20049;-82
2021/03/29 08:12:37;;;;;;;2.55;1.35;;;10.90;61.50;;;;;;4894325;29;20225;-85
2021/03/29 08:15:06;;;;;;;8.15;1.40;;;11.10;60.70;;;;;;4880762;29;20051;-82
2021/03/29 08:17:52;;;;;;;4.60;2.15;;;11.40;59.60;;;;;;4887832;29;20371;-82
2021/03/29 08:20:36;;;;;;;4.28;1.17;;;11.70;58.80;;;;;;4885817;29;20253;-83
2021/03/29 08:23:38;;;;;;;4.47;1.10;;;11.80;57.00;;;;;;4881359;29;20044;-83
2021/03/29 08:26:11;;;;;;;4.38;1.45;;;11.90;55.60;;;;;;4894542;29;20251;-83
2021/03/29 08:32:13;;;;;;;5.53;1.55;;;12.30;56.10;;;;;;4880609;29;20538;-85
2021/03/29 08:34:56;;;;;;;4.70;1.17;;;12.60;55.10;;;;;;4884465;29;20088;-85
2021/03/29 08:37:28;;;;;;;3.75;1.27;;;12.70;53.90;;;;;;4881003;29;21200;-82
2021/03/29 08:39:58;;;;;;;4.25;1.73;;;12.90;52.70;;;;;;4877360;29;20060;-83
2021/03/29 08:42:32;;;;;;;6.35;1.30;;;12.90;51.90;;;;;;4883238;29;20060;-84
2021/03/29 08:45:02;;;;;;;8.38;1.35;;;13.10;50.90;;;;;;4876961;29;20259;-83
2021/03/29 08:47:31;;;;;;;3.72;1.20;;;13.30;50.00;;;;;;4886714;29;20057;-84
2021/03/29 08:50:00;;;;;;;4.07;0.82;;;13.30;49.90;;;;;;4884433;29;20080;-84
2021/03/29 08:52:45;;;;;;;8.95;1.40;;;13.40;48.80;;;;;;4885423;29;20268;-82
2021/03/29 08:55:16;;;;;;;6.07;1.63;;;13.40;49.60;;;;;;4899974;29;20060;-82
2021/03/29 08:57:46;;;;;;;3.72;0.90;;;13.40;48.30;;;;;;4875612;29;20053;-83
2021/03/29 09:00:17;;;;;;;3.67;1.30;;;13.30;48.10;;;;;;4887354;29;20049;-84
2021/03/29 09:02:45;;;;;;;5.05;1.45;;;13.40;48.00;;;;;;4890638;29;20040;-83
2021/03/29 09:05:15;;;;;;;6.60;1.70;;;13.40;48.80;;;;;;4885584;29;20340;-83
2021/03/29 09:07:46;;;;;;;5.97;1.35;;;13.30;48.70;;;;;;4902969;29;20273;-84
2021/03/29 09:10:18;;;;;;;4.72;1.35;;;13.40;49.00;;;;;;4891883;29;20243;-83
2021/03/29 09:12:46;;;;;;;2.85;1.35;;;13.50;48.90;;;;;;4871024;29;20332;-83
2021/03/29 09:15:16;;;;;;;4.07;1.10;;;13.60;49.00;;;;;;4890350;29;20056;-83
2021/03/29 09:17:54;;;;;;;9.10;1.60;;;13.70;47.80;;;;;;4888756;29;20412;-81
2021/03/29 09:20:23;;;;;;;5.22;1.27;;;13.70;47.90;;;;;;4884418;29;20702;-83
2021/03/29 09:22:52;;;;;;;6.43;1.23;;;13.80;48.00;;;;;;4902615;29;20121;-83
2021/03/29 09:25:25;;;;;;;2.55;0.80;;;14.00;47.20;;;;;;4903680;29;20049;-83
2021/03/29 09:28:16;;;;;;;4.38;1.05;;;14.20;46.70;;;;;;4884142;29;20069;-84
2021/03/29 09:30:43;;;;;;;4.60;1.20;;;14.40;46.00;;;;;;4885607;29;20662;-83
2021/03/29 09:33:14;;;;;;;4.43;1.13;;;14.60;45.40;;;;;;4883400;29;20065;-82
2021/03/29 09:35:42;;;;;;;8.10;1.00;;;14.90;44.80;;;;;;4885297;29;20067;-80
2021/03/29 09:38:12;;;;;;;5.45;0.85;;;15.30;43.40;;;;;;4879774;29;20327;-82
2021/03/29 09:40:41;;;;;;;4.30;1.00;;;15.30;43.20;;;;;;4884195;29;20517;-82
2021/03/29 09:43:21;;;;;;;2.50;0.80;;;15.80;41.60;;;;;;4883367;29;20076;-82
2021/03/29 09:45:49;;;;;;;4.70;0.95;;;16.20;40.40;;;;;;4887819;29;20199;-83
2021/03/29 09:48:21;;;;;;;8.38;1.13;;;16.50;39.70;;;;;;4895294;29;20052;-81
2021/03/29 09:51:28;;;;;;;3.03;0.73;;;16.50;39.50;;;;;;4866678;29;20041;-82
2021/03/29 09:53:58;;;;;;;4.15;1.02;;;16.70;39.00;;;;;;4885970;29;20326;-82
2021/03/29 09:56:30;;;;;;;5.20;1.23;;;17.20;37.90;;;;;;4897016;29;20052;-82
2021/03/29 09:58:58;;;;;;;2.42;0.95;;;17.70;38.00;;;;;;4895612;29;20056;-83
2021/03/29 10:01:29;;;;;;;3.78;0.77;;;17.70;37.20;;;;;;4864749;29;20045;-81
2021/03/29 10:04:14;;;;;;;4.15;1.38;;;18.70;35.60;;;;;;4884531;29;20045;-81
2021/03/29 10:06:52;;;;;;;4.90;1.13;;;19.30;34.80;;;;;;4886038;29;20061;-81
2021/03/29 10:09:32;;;;;;;2.80;1.17;;;18.90;35.00;;;;;;4887596;29;20061;-81
2021/03/29 10:12:01;;;;;;;4.93;0.95;;;19.40;34.60;;;;;;4882585;29;20225;-83
2021/03/29 10:14:41;;;;;;;4.13;1.10;;;19.70;33.80;;;;;;4898538;29;20052;-83
2021/03/29 10:17:17;;;;;;;4.13;1.08;;;19.60;33.40;;;;;;4886514;29;20201;-82
2021/03/29 10:19:47;;;;;;;3.92;1.13;;;20.40;32.80;;;;;;4870209;29;20057;-82
2021/03/29 10:22:18;;;;;;;3.92;1.33;;;20.40;32.60;;;;;;4877157;29;20377;-82
2021/03/29 10:25:04;;;;;;;7.13;1.50;;;21.10;31.80;;;;;;4885063;29;20106;-82
2021/03/29 10:27:41;;;;;;;3.28;1.25;;;20.90;31.70;;;;;;4880712;29;20060;-83
2021/03/29 10:30:11;;;;;;;6.72;1.25;;;21.20;30.90;;;;;;4897896;29;20129;-82
2021/03/29 10:32:39;;;;;;;3.17;1.37;;;20.40;32.10;;;;;;4879522;29;20425;-83
2021/03/29 10:35:08;;;;;;;8.60;1.20;;;19.10;34.40;;;;;;4881820;29;20106;-82
2021/03/29 10:37:36;;;;;;;3.72;1.17;;;19.10;34.70;;;;;;4896302;29;20064;-83
2021/03/29 10:40:08;;;;;;;9.02;2.15;;;18.30;36.20;;;;;;4897509;29;20075;-82
2021/03/29 10:42:36;;;;;;;3.50;1.23;;;18.20;36.90;;;;;;4883817;29;20111;-82
2021/03/29 10:45:07;;;;;;;4.13;1.40;;;19.60;34.50;;;;;;4884977;29;20340;-83
2021/03/29 10:47:35;;;;;;;6.05;1.45;;;20.70;32.00;;;;;;4881175;29;20141;-81
2021/03/29 10:50:05;;;;;;;6.15;1.38;;;20.80;32.30;;;;;;4897593;29;20085;-81
2021/03/29 10:52:33;;;;;;;5.82;1.52;;;21.70;30.00;;;;;;4883828;29;20045;-82
2021/03/29 10:55:03;;;;;;;7.93;1.67;;;21.60;30.50;;;;;;4883985;29;20064;-82
2021/03/29 10:57:32;;;;;;;6.10;1.35;;;22.50;29.90;;;;;;4884739;29;20056;-82
2021/03/29 11:00:00;;;;;;;7.03;1.50;;;23.30;28.30;;;;;;4897367;29;20099;-83
2021/03/29 11:02:32;;;;;;;9.32;1.52;;;23.50;27.80;;;;;;4866596;29;20294;-83
2021/03/29 11:05:00;;;;;;;7.43;1.40;;;23.70;27.90;;;;;;4883373;29;20104;-83
2021/03/29 11:07:31;;;;;;;5.32;1.67;;;23.90;27.20;;;;;;4897374;29;20057;-82
2021/03/29 11:10:03;;;;;;;6.50;1.55;;;24.80;26.40;;;;;;4891820;29;20060;-83
2021/03/29 11:12:34;;;;;;;4.00;1.52;;;24.20;27.00;;;;;;4900412;29;20056;-84
2021/03/29 11:15:06;;;;;;;7.53;1.60;;;24.10;26.10;;;;;;4874978;29;20108;-82
2021/03/29 11:17:36;;;;;;;7.50;1.45;;;24.00;27.00;;;;;;4864817;29;20077;-83
2021/03/29 11:20:07;;;;;;;5.70;1.25;;;24.90;26.30;;;;;;4894183;29;20046;-83
2021/03/29 11:22:35;;;;;;;5.05;1.38;;;25.60;24.80;;;;;;4869799;29;20060;-81
2021/03/29 11:25:06;;;;;;;6.63;1.10;;;24.20;26.30;;;;;;4886579;29;20050;-82
2021/03/29 11:27:35;;;;;;;4.30;1.25;;;24.50;25.90;;;;;;4886384;29;20226;-81
2021/03/29 11:30:04;;;;;;;6.25;1.45;;;25.30;25.00;;;;;;4884635;29;20057;-82
2021/03/29 11:32:34;;;;;;;3.40;1.33;;;25.70;23.80;;;;;;4866931;29;20049;-83
2021/03/29 11:35:09;;;;;;;4.60;1.50;;;24.80;25.20;;;;;;4885349;29;20049;-82
2021/03/29 11:37:38;;;;;;;5.68;1.38;;;25.80;23.90;;;;;;4893649;29;20063;-82
2021/03/29 11:40:11;;;;;;;5.60;1.67;;;25.40;24.30;;;;;;4886992;29;20044;-83
2021/03/29 11:42:42;;;;;;;6.00;1.17;;;25.40;23.70;;;;;;4894001;29;20048;-84
2021/03/29 11:45:20;;;;;;;10.23;1.42;;;25.30;22.70;;;;;;4878011;29;20056;-82
2021/03/29 11:47:48;;;;;;;3.53;1.00;;;26.60;21.80;;;;;;4889328;29;20271;-82
2021/03/29 11:50:16;;;;;;;5.25;1.92;;;27.20;21.90;;;;;;4879088;29;20072;-83
2021/03/29 11:52:46;;;;;;;3.67;1.00;;;26.60;20.70;;;;;;4900791;29;20061;-83
2021/03/29 11:55:36;;;;;;;6.30;1.50;;;27.30;20.60;;;;;;4888242;29;20049;-84
2021/03/29 11:58:08;;;;;;;5.50;1.92;;;27.60;20.10;;;;;;4885116;29;20053;-83
2021/03/29 12:00:48;;;;;;;4.82;1.17;;;26.70;20.10;;;;;;4871970;29;20124;-82
2021/03/29 12:03:22;;;;;;;3.58;1.10;;;27.50;20.50;;;;;;4896720;29;20541;-83
2021/03/29 12:06:03;;;;;;;5.45;1.20;;;28.30;19.40;;;;;;4901580;29;20053;-82
2021/03/29 12:08:37;;;;;;;4.43;1.48;;;29.60;18.90;;;;;;4884905;29;20049;-82
2021/03/29 12:13:57;;;;;;;4.93;0.90;;;28.10;19.70;;;;;;4900388;29;20120;-83
2021/03/29 12:16:26;;;;;;;2.67;1.02;;;27.90;19.90;;;;;;4888473;29;20558;-83
2021/03/29 12:18:57;;;;;;;5.13;1.10;;;26.90;21.00;;;;;;4888810;29;20044;-82
2021/03/29 12:21:28;;;;;;;4.47;1.20;;;28.20;19.60;;;;;;4897897;29;20328;-82
2021/03/29 12:24:00;;;;;;;5.40;1.35;;;27.90;20.50;;;;;;4879455;29;20170;-83
2021/03/29 12:26:30;;;;;;;4.70;1.15;;;27.90;20.40;;;;;;4871936;29;20072;-83
2021/03/29 12:29:02;;;;;;;5.55;1.08;;;28.30;20.30;;;;;;4873197;29;20128;-84
2021/03/29 12:31:45;;;;;;;5.03;1.25;;;28.40;20.00;;;;;;4896197;29;20061;-84
2021/03/29 12:34:14;;;;;;;4.63;1.08;;;28.40;20.00;;;;;;4886121;29;20053;-83
2021/03/29 12:36:47;;;;;;;4.03;1.10;;;28.50;19.20;;;;;;4881160;29;20056;-83
2021/03/29 12:39:23;;;;;;;7.68;1.60;;;28.00;19.20;;;;;;4882163;29;20041;-82
2021/03/29 12:41:55;;;;;;;5.05;1.45;;;28.00;19.30;;;;;;4898350;29;20053;-83
2021/03/29 12:44:26;;;;;;;2.72;0.95;;;29.60;17.60;;;;;;4882572;29;20093;-82
2021/03/29 12:46:57;;;;;;;3.83;1.55;;;28.50;18.70;;;;;;4899427;29;20086;-82
2021/03/29 12:49:25;;;;;;;3.47;1.10;;;27.00;20.50;;;;;;4880071;29;20055;-82
2021/03/29 12:51:56;;;;;;;4.97;1.30;;;26.00;21.30;;;;;;4882687;29;20062;-83
2021/03/29 12:54:26;;;;;;;4.55;1.23;;;25.80;21.80;;;;;;4873169;29;20297;-83
2021/03/29 12:56:54;;;;;;;7.35;1.70;;;26.30;21.30;;;;;;4868233;29;20241;-83
2021/03/29 12:59:23;;;;;;;3.97;1.10;;;25.80;22.40;;;;;;4895197;29;20669;-82
2021/03/29 13:01:56;;;;;;;7.78;1.52;;;25.60;22.80;;;;;;4866944;29;20076;-83
2021/03/29 13:04:31;;;;;;;3.08;1.05;;;26.90;21.60;;;;;;4881687;29;20702;-84
2021/03/29 13:07:17;;;;;;;4.40;1.17;;;27.80;20.60;;;;;;4880224;29;20052;-83
2021/03/29 13:09:51;;;;;;;4.22;1.20;;;27.40;20.00;;;;;;4881482;29;20053;-83
2021/03/29 13:12:30;;;;;;;2.38;1.25;;;26.20;21.50;;;;;;4895501;29;20057;-82
2021/03/29 13:15:07;;;;;;;4.28;1.35;;;26.30;21.20;;;;;;4882701;29;20060;-83
2021/03/29 13:17:40;;;;;;;5.30;1.33;;;27.30;20.70;;;;;;4897482;29;20117;-83
2021/03/29 13:20:15;;;;;;;3.88;1.08;;;28.80;19.30;;;;;;4885710;29;20353;-82
2021/03/29 13:22:46;;;;;;;3.65;1.15;;;30.00;18.20;;;;;;4881760;29;20058;-83
2021/03/29 13:25:14;;;;;;;5.05;2.53;;;29.80;18.30;;;;;;4883317;29;20074;-81
2021/03/29 13:27:45;;;;;;;4.53;1.48;;;30.60;17.50;;;;;;4904899;29;20073;-83